createdAt,value
2022-10-11T06:15:14.398Z,6.17
2022-10-11T06:25:14.217Z,5.52
2022-10-11T06:35:14.339Z,5.50
2022-10-11T06:45:14.354Z,3.74
2022-10-11T06:55:14.178Z,4.63
2022-10-11T07:05:14.340Z,4.70
2022-10-11T07:15:14.177Z,4.30
2022-10-11T07:25:14.428Z,7.04
2022-10-11T07:35:14.235Z,7.36
2022-10-11T07:45:14.352Z,8.03
2022-10-11T07:55:14.406Z,8.64
2022-10-11T08:05:14.301Z,4.60
2022-10-11T08:15:14.459Z,7.74
2022-10-11T08:25:14.337Z,6.43
2022-10-11T08:35:14.437Z,4.92
2022-10-11T08:45:14.723Z,5.07
2022-10-11T08:55:14.782Z,5.68
2022-10-11T09:05:14.686Z,4.89
2022-10-11T09:15:14.816Z,7.03
2022-10-11T09:25:14.867Z,5.78
2022-10-11T09:35:14.801Z,7.52
2022-10-11T09:45:14.836Z,4.71
2022-10-11T09:55:19.539Z,5.95
2022-10-11T10:05:15.130Z,4.35
2022-10-11T10:15:14.856Z,4.86
2022-10-11T10:25:14.893Z,7.53
2022-10-11T10:35:14.891Z,5.99
2022-10-11T10:45:20.097Z,5.99
2022-10-11T10:55:14.842Z,7.76
2022-10-11T11:05:14.765Z,4.10
2022-10-11T11:15:14.674Z,9.76
2022-10-11T11:25:14.612Z,9.64
2022-10-11T11:35:14.626Z,8.49
2022-10-11T11:45:14.824Z,6.79
2022-10-11T11:55:14.817Z,5.85
2022-10-11T12:05:14.863Z,9.99
2022-10-11T12:15:14.855Z,11.65
2022-10-11T12:25:18.394Z,9.50
2022-10-11T12:35:14.887Z,11.37
2022-10-11T12:45:15.156Z,8.64
2022-10-11T12:55:14.922Z,6.59
2022-10-11T13:05:14.897Z,6.69
2022-10-11T13:15:14.997Z,8.79
2022-10-11T13:25:15.048Z,9.83
2022-10-11T13:35:15.093Z,15.51
2022-10-11T13:45:14.807Z,8.50
2022-10-11T13:55:14.808Z,1.71
2022-10-11T14:05:14.925Z,3.84
2022-10-11T14:15:15.085Z,6.52
2022-10-11T14:25:14.951Z,8.26
2022-10-11T14:35:14.993Z,8.72
2022-10-11T14:45:14.929Z,8.15
2022-10-11T14:55:14.909Z,8.43
2022-10-11T15:05:14.919Z,7.59
2022-10-11T15:15:16.932Z,3.44
2022-10-11T15:25:14.942Z,4.59
2022-10-11T15:35:14.955Z,2.80
2022-10-11T15:45:15.109Z,1.29
2022-10-11T15:55:15.304Z,0.51
2022-10-11T16:05:15.171Z,1.67
2022-10-11T16:15:15.167Z,3.02
2022-10-11T16:25:15.176Z,0.79
2022-10-11T16:35:15.113Z,0.03
2022-10-11T16:45:15.083Z,0.00
2022-10-11T16:55:15.274Z,0.00
2022-10-11T17:05:15.117Z,0.06
2022-10-11T17:15:15.115Z,0.02
2022-10-11T17:25:15.287Z,1.02
2022-10-11T17:35:15.144Z,0.00
2022-10-11T17:45:15.179Z,0.00
2022-10-11T17:55:15.190Z,0.00
2022-10-11T18:05:15.122Z,0.00
2022-10-11T18:15:15.177Z,0.00
2022-10-11T18:25:15.204Z,0.00
2022-10-11T18:35:15.203Z,0.00
2022-10-11T18:45:15.487Z,0.00
2022-10-11T18:55:15.609Z,0.00
2022-10-11T19:05:15.599Z,0.00
2022-10-11T19:15:15.845Z,1.33
